Time;durP1;ratioP1;P1;durP2;ratioP2;P2;SDS_P1;SDS_P2;PMS_P1;PMS_P2;Temp;Humidity;BMP_temperature;BMP_pressure;BME280_temperature;BME280_humidity;BME280_pressure;Samples;Min_cycle;Max_cycle;Signal;HPM_P1;HPM_P2
2022/05/08 00:01:06;;;;;;;7.10;3.70;;;;;;;9.53;100.00;96346.69;5013773;28;24459;-73
2022/05/08 00:03:34;;;;;;;4.80;3.53;;;;;;;9.48;100.00;96346.09;5013437;28;24953;-74
2022/05/08 00:06:06;;;;;;;9.40;3.87;;;;;;;9.34;100.00;96344.19;5013579;28;24657;-74
2022/05/08 00:08:33;;;;;;;6.80;3.63;;;;;;;9.38;100.00;96343.97;5013703;28;24554;-74
2022/05/08 00:10:59;;;;;;;6.28;3.95;;;;;;;9.26;100.00;96331.63;5013325;28;24432;-74
2022/05/08 00:13:25;;;;;;;5.82;3.70;;;;;;;9.13;100.00;96339.16;5013476;28;24490;-74
2022/05/08 00:15:52;;;;;;;5.77;3.60;;;;;;;9.14;100.00;96337.41;5013379;28;24427;-74
2022/05/08 00:18:18;;;;;;;4.75;3.63;;;;;;;9.19;100.00;96333.66;5013109;28;24431;-74
2022/05/08 00:20:46;;;;;;;10.25;3.95;;;;;;;9.36;100.00;96327.69;5013440;28;20808;-74
2022/05/08 00:23:12;;;;;;;7.73;4.30;;;;;;;9.24;100.00;96330.88;5013216;28;20834;-73
2022/05/08 00:25:39;;;;;;;5.80;4.13;;;;;;;9.01;100.00;96331.13;5013316;28;24474;-74
2022/05/08 00:28:05;;;;;;;8.82;4.00;;;;;;;8.95;100.00;96327.13;5012537;28;24467;-74
2022/05/08 00:30:32;;;;;;;7.90;4.07;;;;;;;8.99;100.00;96336.38;5013136;28;20758;-73
2022/05/08 00:32:59;;;;;;;13.27;4.13;;;;;;;9.06;100.00;96334.34;5012822;28;24428;-73
2022/05/08 00:35:26;;;;;;;6.23;3.70;;;;;;;9.10;100.00;96328.13;5013036;28;24453;-74
2022/05/08 00:37:54;;;;;;;6.45;4.18;;;;;;;9.15;100.00;96331.31;5013162;28;24543;-73
2022/05/08 00:40:20;;;;;;;6.32;4.07;;;;;;;9.06;100.00;96331.78;5013056;28;24420;-74
2022/05/08 00:42:47;;;;;;;7.18;3.67;;;;;;;8.99;100.00;96328.63;5012550;28;24436;-74
2022/05/08 00:45:14;;;;;;;10.52;4.38;;;;;;;8.98;100.00;96331.31;5012683;28;24435;-74
2022/05/08 00:47:41;;;;;;;6.40;4.00;;;;;;;9.00;100.00;96327.72;5013193;28;20821;-74
2022/05/08 00:50:08;;;;;;;5.97;3.88;;;;;;;8.98;100.00;96319.22;5012553;28;24969;-74
2022/05/08 00:52:35;;;;;;;5.70;3.83;;;;;;;8.93;100.00;96324.59;5012330;28;25019;-74
2022/05/08 00:55:05;;;;;;;6.50;4.00;;;;;;;8.88;100.00;96325.72;5012567;28;24805;-74
2022/05/08 00:57:31;;;;;;;3.97;3.47;;;;;;;8.88;100.00;96323.97;5012595;28;24421;-74
2022/05/08 01:00:03;;;;;;;6.13;3.75;;;;;;;8.85;100.00;96321.53;5012508;28;20758;-74
2022/05/08 01:02:29;;;;;;;8.82;4.07;;;;;;;8.83;100.00;96312.19;5012346;28;24626;-74
2022/05/08 01:04:56;;;;;;;5.93;3.53;;;;;;;8.80;100.00;96315.75;5012654;28;21124;-74
2022/05/08 01:07:22;;;;;;;7.38;3.97;;;;;;;8.84;100.00;96313.88;5012486;28;20766;-73
2022/05/08 01:09:49;;;;;;;5.15;3.70;;;;;;;8.75;100.00;96312.56;5012294;28;24428;-74
2022/05/08 01:12:17;;;;;;;4.60;3.40;;;;;;;8.70;100.00;96314.50;5012137;28;21093;-74
2022/05/08 01:14:43;;;;;;;5.17;3.80;;;;;;;8.56;100.00;96314.31;5012232;28;20895;-73
2022/05/08 01:17:10;;;;;;;9.07;4.63;;;;;;;8.72;100.00;96318.69;5012422;28;24446;-74
2022/05/08 01:19:36;;;;;;;9.63;4.40;;;;;;;8.59;100.00;96309.84;5012296;28;20770;-74
2022/05/08 01:22:05;;;;;;;5.97;4.43;;;;;;;8.50;100.00;96306.88;5012128;28;21327;-74
2022/05/08 01:24:31;;;;;;;7.75;4.68;;;;;;;8.30;100.00;96311.13;5012011;28;20809;-74
2022/05/08 01:26:58;;;;;;;6.72;4.55;;;;;;;8.12;100.00;96307.66;5011818;28;24494;-74
2022/05/08 01:29:24;;;;;;;7.07;4.20;;;;;;;8.14;100.00;96305.81;5012291;28;20766;-74
2022/05/08 01:31:50;;;;;;;7.35;4.45;;;;;;;8.17;100.00;96307.44;5012142;28;20770;-73
2022/05/08 01:34:17;;;;;;;6.45;4.13;;;;;;;8.24;100.00;96308.84;5011815;28;24447;-73
2022/05/08 01:36:43;;;;;;;8.52;4.53;;;;;;;8.32;100.00;96314.50;5011846;28;24500;-74
2022/05/08 01:39:11;;;;;;;9.45;5.07;;;;;;;8.34;100.00;96309.25;5010859;28;25020;-74
2022/05/08 01:41:37;;;;;;;7.05;4.95;;;;;;;8.31;100.00;96312.00;5011594;28;21167;-74
2022/05/08 01:44:04;;;;;;;6.57;4.65;;;;;;;8.29;100.00;96300.88;5011557;28;24424;-74
2022/05/08 01:46:30;;;;;;;7.60;4.38;;;;;;;8.31;100.00;96310.25;5011799;28;24425;-73
2022/05/08 01:48:56;;;;;;;7.45;4.65;;;;;;;8.34;100.00;96310.09;5011544;28;24786;-74
2022/05/08 01:51:23;;;;;;;8.23;4.55;;;;;;;8.30;100.00;96310.28;5011496;28;24474;-74
2022/05/08 01:53:49;;;;;;;8.55;4.82;;;;;;;8.32;100.00;96311.91;5011282;28;20906;-74
2022/05/08 01:56:19;;;;;;;8.45;4.60;;;;;;;8.31;100.00;96312.00;5011319;28;24423;-74
2022/05/08 01:58:47;;;;;;;6.90;4.45;;;;;;;8.28;100.00;96306.97;5011682;28;21060;-74
2022/05/08 02:01:14;;;;;;;8.10;4.60;;;;;;;8.18;100.00;96311.69;5011642;28;20808;-74
2022/05/08 02:03:41;;;;;;;9.00;4.18;;;;;;;8.20;100.00;96322.78;5011239;28;20808;-74
2022/05/08 02:06:07;;;;;;;6.03;4.30;;;;;;;8.35;100.00;96324.69;5011398;28;21164;-73
2022/05/08 02:08:34;;;;;;;5.45;4.32;;;;;;;8.24;100.00;96332.06;5011264;28;21279;-74
2022/05/08 02:11:01;;;;;;;14.77;4.88;;;;;;;8.08;100.00;96333.63;5011907;28;20762;-74
2022/05/08 02:13:29;;;;;;;7.07;4.72;;;;;;;8.08;100.00;96329.31;5011315;28;24416;-74
2022/05/08 02:15:55;;;;;;;5.55;4.55;;;;;;;8.12;100.00;96330.88;5011535;28;20800;-74
2022/05/08 02:18:22;;;;;;;9.52;4.82;;;;;;;7.86;100.00;96329.44;5011180;28;24519;-74
2022/05/08 02:20:48;;;;;;;4.20;3.80;;;;;;;7.71;100.00;96327.47;5010915;28;24424;-74
2022/05/08 02:23:14;;;;;;;6.25;3.78;;;;;;;7.89;100.00;96321.53;5011156;28;24439;-74
2022/05/08 02:25:42;;;;;;;4.50;3.53;;;;;;;7.86;100.00;96326.00;5011159;28;24833;-74
2022/05/08 02:28:09;;;;;;;4.63;3.63;;;;;;;7.68;100.00;96327.63;5011372;28;20800;-74
2022/05/08 02:30:37;;;;;;;5.18;4.10;;;;;;;7.60;100.00;96330.53;5011309;28;20800;-74
2022/05/08 02:33:03;;;;;;;5.53;4.40;;;;;;;7.57;100.00;96324.69;5010791;28;20808;-74
2022/05/08 02:35:30;;;;;;;5.32;4.18;;;;;;;7.68;100.00;96325.06;5010897;28;20786;-74
2022/05/08 02:37:57;;;;;;;4.38;3.60;;;;;;;7.80;100.00;96331.44;5011096;28;20774;-74
2022/05/08 02:40:24;;;;;;;7.07;4.10;;;;;;;7.85;100.00;96325.16;5011001;28;24478;-74
2022/05/08 02:42:51;;;;;;;5.47;3.67;;;;;;;7.87;100.00;96330.25;5010803;28;20770;-74
2022/05/08 02:45:18;;;;;;;4.70;3.80;;;;;;;7.86;100.00;96334.59;5010808;28;24432;-74
2022/05/08 02:47:46;;;;;;;4.43;3.70;;;;;;;7.76;100.00;96328.97;5010818;28;24417;-74
2022/05/08 02:50:13;;;;;;;6.32;3.63;;;;;;;7.79;100.00;96330.59;5010551;28;20866;-74
2022/05/08 02:52:40;;;;;;;4.20;3.28;;;;;;;7.68;100.00;96327.63;5010717;28;24435;-74
2022/05/08 03:00:37;;;;;;;4.45;3.88;;;;;;;7.31;100.00;96334.31;5010525;28;24420;-74
2022/05/08 03:03:06;;;;;;;4.22;3.70;;;;;;;7.35;100.00;96333.28;5010636;28;24460;-74
2022/05/08 03:05:32;;;;;;;5.10;3.60;;;;;;;7.25;100.00;96337.13;5010642;28;24512;-74
2022/05/08 03:07:59;;;;;;;6.90;3.60;;;;;;;7.14;100.00;96334.16;5010647;28;24416;-74
2022/05/08 03:10:25;;;;;;;9.73;3.47;;;;;;;7.08;100.00;96334.38;5010675;28;24420;-74
2022/05/08 03:12:52;;;;;;;4.53;3.83;;;;;;;7.07;100.00;96338.72;5010322;28;24773;-74
2022/05/08 03:15:18;;;;;;;7.53;4.03;;;;;;;7.21;100.00;96335.59;5010310;28;24503;-74
2022/05/08 03:17:45;;;;;;;5.32;3.80;;;;;;;7.22;100.00;96329.53;5010703;28;24782;-74
2022/05/08 03:20:13;;;;;;;5.57;3.77;;;;;;;7.40;100.00;96340.81;5010692;28;20766;-74
2022/05/08 03:22:39;;;;;;;5.70;3.78;;;;;;;7.20;100.00;96334.75;5010293;28;24429;-74
2022/05/08 03:25:06;;;;;;;10.15;3.90;;;;;;;7.07;100.00;96332.72;5010363;28;24782;-74
2022/05/08 03:27:33;;;;;;;5.20;3.95;;;;;;;7.11;100.00;96335.09;5010387;28;24826;-74
2022/05/08 03:29:59;;;;;;;4.72;3.53;;;;;;;6.94;100.00;96330.66;5010251;28;24420;-74
2022/05/08 03:32:25;;;;;;;6.63;3.70;;;;;;;6.91;100.00;96323.03;5010219;28;24427;-74
2022/05/08 03:34:52;;;;;;;5.88;4.13;;;;;;;7.05;100.00;96324.25;5010219;28;25040;-74
2022/05/08 03:37:20;;;;;;;5.23;4.13;;;;;;;7.21;100.00;96327.84;5010365;28;24425;-74
2022/05/08 03:39:46;;;;;;;5.28;4.40;;;;;;;7.12;100.00;96329.06;5010213;28;24432;-74
2022/05/08 03:42:13;;;;;;;7.20;4.07;;;;;;;6.99;100.00;96327.88;5010214;28;24483;-74
2022/05/08 03:44:40;;;;;;;8.43;4.22;;;;;;;6.96;100.00;96331.41;5009973;28;24769;-74
2022/05/08 03:47:06;;;;;;;4.95;4.30;;;;;;;6.95;100.00;96323.75;5010108;28;24420;-74
2022/05/08 03:49:33;;;;;;;5.32;4.30;;;;;;;6.97;100.00;96330.53;5009993;28;24558;-74
2022/05/08 03:51:59;;;;;;;6.78;4.15;;;;;;;7.03;100.00;96327.69;5009565;28;24490;-74
2022/05/08 03:54:27;;;;;;;10.48;4.10;;;;;;;7.07;100.00;96333.56;5009289;28;24444;-74
2022/05/08 03:56:54;;;;;;;4.60;3.72;;;;;;;7.10;100.00;96330.03;5009880;28;24474;-74
2022/05/08 03:59:20;;;;;;;6.63;4.22;;;;;;;7.13;100.00;96320.44;5010283;28;24420;-74
2022/05/08 04:01:46;;;;;;;6.38;4.57;;;;;;;7.16;100.00;96328.06;5010891;28;24432;-74
2022/05/08 04:04:13;;;;;;;4.97;3.75;;;;;;;7.17;100.00;96326.31;5013666;28;24420;-74
2022/05/08 04:06:40;;;;;;;5.15;4.00;;;;;;;7.10;100.00;96330.03;5013500;28;24423;-74
2022/05/08 04:09:06;;;;;;;8.20;4.10;;;;;;;7.10;100.00;96325.72;5013579;28;24421;-74
2022/05/08 04:11:34;;;;;;;4.93;4.32;;;;;;;7.14;100.00;96329.84;5013569;28;20766;-74
2022/05/08 04:14:00;;;;;;;6.73;3.90;;;;;;;7.21;100.00;96333.00;5013272;28;21349;-74
2022/05/08 04:16:27;;;;;;;6.05;4.30;;;;;;;7.20;100.00;96332.19;5013205;28;24976;-74
2022/05/08 04:18:53;;;;;;;5.05;4.30;;;;;;;7.15;100.00;96334.06;5013371;28;24474;-74
2022/05/08 04:21:20;;;;;;;5.10;3.87;;;;;;;7.12;100.00;96333.38;5013129;28;24978;-74
2022/05/08 04:26:31;;;;;;;7.15;4.57;;;;;;;7.20;100.00;96331.34;5013350;28;24963;-74
2022/05/08 04:28:59;;;;;;;3.80;3.40;;;;;;;7.25;100.00;96331.97;5013264;28;24525;-74
2022/05/08 04:31:25;;;;;;;8.75;3.85;;;;;;;7.24;100.00;96333.72;5013051;28;24431;-74
2022/05/08 04:33:52;;;;;;;6.15;3.63;;;;;;;7.29;100.00;96336.09;5013138;28;24427;-74
2022/05/08 04:36:19;;;;;;;7.82;4.10;;;;;;;7.37;100.00;96339.19;5012848;28;24499;-74
2022/05/08 04:38:45;;;;;;;4.53;3.67;;;;;;;7.21;100.00;96333.00;5012792;28;24478;-72
2022/05/08 04:41:12;;;;;;;5.63;3.60;;;;;;;7.08;100.00;96334.38;5012963;28;24531;-72
2022/05/08 04:43:39;;;;;;;4.85;3.90;;;;;;;7.06;100.00;96338.78;5012555;28;24782;-72
2022/05/08 04:46:07;;;;;;;4.40;3.35;;;;;;;7.10;100.00;96337.75;5012970;28;24424;-72
2022/05/08 04:48:33;;;;;;;4.85;3.50;;;;;;;7.18;100.00;96341.69;5012728;28;24427;-72
2022/05/08 04:51:00;;;;;;;5.80;3.83;;;;;;;7.08;100.00;96342.13;5012676;28;24608;-72
2022/05/08 04:53:26;;;;;;;4.35;3.75;;;;;;;7.02;100.00;96345.78;5012799;28;20770;-71
2022/05/08 04:55:53;;;;;;;5.35;3.88;;;;;;;7.02;100.00;96340.63;5012612;28;24447;-72
2022/05/08 04:58:19;;;;;;;4.05;3.65;;;;;;;7.03;100.00;96345.72;5012627;28;24428;-72
2022/05/08 05:00:46;;;;;;;5.18;3.92;;;;;;;7.15;100.00;96353.84;5012508;28;24471;-72
2022/05/08 05:03:14;;;;;;;4.10;3.70;;;;;;;7.22;100.00;96352.72;5012370;28;24427;-72
2022/05/08 05:05:40;;;;;;;6.68;3.75;;;;;;;7.44;100.00;96350.94;5012392;28;24422;-72
2022/05/08 05:08:07;;;;;;;5.63;4.10;;;;;;;7.50;100.00;96357.59;5012554;28;24778;-72
2022/05/08 05:10:34;;;;;;;5.15;4.20;;;;;;;7.47;100.00;96365.44;5012453;28;24478;-72
2022/05/08 05:13:01;;;;;;;5.53;4.45;;;;;;;7.40;100.00;96367.44;5011857;28;25064;-72
2022/05/08 05:15:29;;;;;;;4.57;4.07;;;;;;;7.34;100.00;96370.28;5012147;28;24436;-72
2022/05/08 05:17:58;;;;;;;5.68;3.90;;;;;;;7.36;100.00;96370.19;5012433;28;24450;-72
2022/05/08 05:20:25;;;;;;;4.90;4.30;;;;;;;7.44;100.00;96368.16;5011993;28;24837;-72
2022/05/08 05:22:52;;;;;;;5.88;4.55;;;;;;;7.54;100.00;96366.03;5012027;28;24813;-72
2022/05/08 05:25:18;;;;;;;6.60;4.35;;;;;;;7.56;100.00;96374.53;5012134;28;24987;-72
2022/05/08 05:27:45;;;;;;;6.03;4.45;;;;;;;7.68;100.00;96376.63;5011935;28;24424;-72
2022/05/08 05:30:12;;;;;;;4.95;4.18;;;;;;;7.79;100.00;96382.16;5011989;28;24479;-72
2022/05/08 05:32:39;;;;;;;4.88;4.38;;;;;;;7.97;100.00;96378.81;5011876;28;20805;-72
2022/05/08 05:35:06;;;;;;;5.88;4.45;;;;;;;8.18;100.00;96368.44;5012026;28;20783;-72
2022/05/08 05:37:34;;;;;;;4.97;4.10;;;;;;;8.37;100.00;96386.53;5012127;28;24470;-72
2022/05/08 05:40:01;;;;;;;5.88;4.32;;;;;;;8.39;100.00;96377.03;5012177;28;21225;-72
2022/05/08 05:42:27;;;;;;;12.05;4.40;;;;;;;8.29;100.00;96379.13;5011561;28;20766;-72
2022/05/08 05:44:54;;;;;;;4.93;4.43;;;;;;;8.34;100.00;96374.59;5011677;28;24829;-72
2022/05/08 05:50:05;;;;;;;5.25;4.13;;;;;;;8.44;100.00;96383.66;5011675;28;20670;-72
2022/05/08 05:52:36;;;;;;;4.20;3.80;;;;;;;8.54;100.00;96376.34;5011661;28;21623;-72
2022/05/08 05:55:04;;;;;;;6.70;4.13;;;;;;;8.68;100.00;96378.31;5011533;28;21495;-72
2022/05/08 05:57:30;;;;;;;6.07;4.70;;;;;;;8.68;100.00;96375.72;5011690;28;20789;-72
2022/05/08 05:59:57;;;;;;;7.22;4.55;;;;;;;8.64;100.00;96382.78;5011436;28;24420;-72
2022/05/08 06:02:23;;;;;;;5.47;4.28;;;;;;;8.95;100.00;96377.03;5011271;28;24423;-72
2022/05/08 06:04:50;;;;;;;5.70;4.20;;;;;;;9.25;100.00;96378.25;5011548;28;24475;-71
2022/05/08 06:07:16;;;;;;;5.40;4.57;;;;;;;9.40;100.00;96382.66;5011432;28;24428;-72
2022/05/08 06:09:44;;;;;;;6.60;4.20;;;;;;;9.59;100.00;96392.97;5011416;28;24478;-72
2022/05/08 06:12:11;;;;;;;7.85;4.68;;;;;;;9.86;100.00;96388.16;5011178;28;20766;-72
2022/05/08 06:14:38;;;;;;;5.00;4.50;;;;;;;10.19;100.00;96388.19;5011068;28;20865;-72
2022/05/08 06:17:04;;;;;;;9.17;4.50;;;;;;;10.54;100.00;96389.00;5011205;28;25064;-72
2022/05/08 06:19:31;;;;;;;6.70;4.45;;;;;;;10.80;100.00;96385.03;5011099;28;24950;-72
2022/05/08 06:21:57;;;;;;;8.50;4.57;;;;;;;11.06;100.00;96382.78;5011175;28;24455;-71
2022/05/08 06:24:24;;;;;;;5.90;4.40;;;;;;;11.30;100.00;96378.81;5010621;28;24861;-72
2022/05/08 06:26:52;;;;;;;4.82;4.32;;;;;;;11.15;100.00;96393.47;5010854;28;25000;-72
2022/05/08 06:29:18;;;;;;;4.63;4.20;;;;;;;11.39;100.00;96393.88;5011237;28;24486;-72
2022/05/08 06:31:46;;;;;;;5.03;4.45;;;;;;;11.62;100.00;96396.91;5011152;28;24440;-74
2022/05/08 06:34:13;;;;;;;5.07;4.03;;;;;;;11.76;100.00;96394.38;5010936;28;24527;-74
2022/05/08 06:36:39;;;;;;;6.95;5.00;;;;;;;12.00;100.00;96397.31;5010848;28;24443;-74
2022/05/08 06:39:07;;;;;;;4.50;4.10;;;;;;;12.18;100.00;96394.59;5010798;28;25032;-72
2022/05/08 06:41:34;;;;;;;9.32;4.63;;;;;;;12.34;100.00;96396.16;5010714;28;24455;-72
2022/05/08 06:44:02;;;;;;;5.55;4.63;;;;;;;12.48;100.00;96402.31;5010573;28;24483;-72
2022/05/08 06:46:31;;;;;;;10.13;6.70;;;;;;;12.84;100.00;96396.63;5011129;28;24423;-72
2022/05/08 06:48:58;;;;;;;6.45;5.25;;;;;;;13.26;100.00;96393.13;5010897;28;24420;-72
2022/05/08 06:51:24;;;;;;;9.77;5.25;;;;;;;13.52;100.00;96395.84;5011025;28;24483;-72
2022/05/08 06:53:51;;;;;;;6.63;5.18;;;;;;;13.73;100.00;96397.06;5010599;28;24459;-72
2022/05/08 06:56:18;;;;;;;8.70;5.60;;;;;;;13.89;100.00;96398.66;5010659;28;24546;-72
2022/05/08 07:01:38;;;;;;;6.97;4.90;;;;;;;13.52;94.20;96399.25;5010608;28;24428;-72
2022/05/08 07:04:05;;;;;;;6.10;4.63;;;;;;;13.53;95.17;96403.56;5010477;28;24482;-72
2022/05/08 07:06:32;;;;;;;5.65;4.68;;;;;;;13.50;94.58;96405.53;5010657;28;24412;-72
2022/05/08 07:08:59;;;;;;;5.65;5.03;;;;;;;13.81;95.28;96404.34;5010666;28;24840;-73
2022/05/08 07:11:25;;;;;;;6.35;5.32;;;;;;;14.02;94.09;96402.94;5010748;28;24428;-73
2022/05/08 07:13:52;;;;;;;5.38;4.88;;;;;;;14.15;94.45;96410.75;5010453;28;24428;-73
2022/05/08 07:16:19;;;;;;;6.68;4.30;;;;;;;14.51;93.24;96404.88;5010535;28;24444;-73
2022/05/08 07:18:46;;;;;;;5.35;4.85;;;;;;;14.61;92.68;96407.69;5010435;28;24834;-73
2022/05/08 07:21:13;;;;;;;8.30;6.28;;;;;;;14.91;92.36;96409.97;5010309;28;24431;-73
2022/05/08 07:23:39;;;;;;;12.65;5.72;;;;;;;15.53;88.62;96413.41;5010489;28;24447;-73
2022/05/08 07:26:06;;;;;;;6.43;5.82;;;;;;;15.49;84.60;96423.25;5010416;28;24416;-73
2022/05/08 07:28:32;;;;;;;7.88;6.75;;;;;;;15.45;88.51;96420.00;5010524;28;24446;-73
2022/05/08 07:30:59;;;;;;;7.55;6.28;;;;;;;15.39;87.18;96417.03;5010449;28;24424;-73
2022/05/08 07:33:27;;;;;;;8.10;5.93;;;;;;;15.28;86.83;96422.16;5010223;28;24512;-73
2022/05/08 07:38:35;;;;;;;13.80;6.88;;;;;;;15.06;84.82;96426.31;5011158;28;24436;-73
2022/05/08 07:41:02;;;;;;;8.07;6.72;;;;;;;14.96;86.27;96426.09;5014050;28;24432;-73
2022/05/08 07:43:29;;;;;;;7.03;6.32;;;;;;;15.00;87.92;96429.34;5013906;28;24420;-73
2022/05/08 07:45:55;;;;;;;7.10;6.50;;;;;;;14.90;90.71;96430.91;5013934;28;24424;-73
2022/05/08 07:48:22;;;;;;;6.85;6.15;;;;;;;15.09;89.95;96433.06;5013792;28;24423;-73
2022/05/08 07:50:48;;;;;;;7.90;6.67;;;;;;;15.17;88.79;96438.59;5013965;28;24436;-73
2022/05/08 07:53:16;;;;;;;10.70;6.25;;;;;;;15.30;92.54;96435.94;5013918;28;24432;-73
2022/05/08 07:55:43;;;;;;;9.93;6.00;;;;;;;15.35;88.65;96439.03;5013410;28;25028;-73
2022/05/08 07:58:11;;;;;;;10.32;7.13;;;;;;;15.59;88.19;96442.53;5013847;28;24478;-73
2022/05/08 08:00:38;;;;;;;7.80;6.90;;;;;;;15.86;88.31;96436.28;5013654;28;24797;-73
2022/05/08 08:03:04;;;;;;;8.30;6.43;;;;;;;16.01;86.13;96449.97;5013679;28;24790;-73
2022/05/08 08:05:31;;;;;;;7.40;6.70;;;;;;;16.25;91.24;96450.78;5013614;28;24516;-73
2022/05/08 08:07:57;;;;;;;11.37;6.80;;;;;;;16.26;84.61;96449.00;5013800;28;24494;-73
2022/05/08 08:10:25;;;;;;;6.90;6.20;;;;;;;16.27;83.32;96450.66;5013428;28;25002;-73
2022/05/08 08:12:52;;;;;;;7.53;6.35;;;;;;;16.28;84.18;96450.56;5013692;28;24436;-72
2022/05/08 08:15:18;;;;;;;7.95;6.00;;;;;;;16.30;86.17;96446.03;5013484;28;24424;-73
2022/05/08 08:17:45;;;;;;;10.88;6.50;;;;;;;16.17;84.79;96455.75;5013560;28;24470;-73
2022/05/08 08:20:12;;;;;;;9.38;6.35;;;;;;;16.15;80.37;96455.84;5013491;28;24471;-73
2022/05/08 08:22:38;;;;;;;9.00;6.25;;;;;;;16.16;79.88;96457.50;5013213;28;24799;-73
2022/05/08 08:25:05;;;;;;;9.82;6.10;;;;;;;16.13;83.39;96463.00;5013214;28;24431;-73
2022/05/08 08:27:33;;;;;;;6.88;6.18;;;;;;;16.18;81.49;96460.03;5013163;28;24782;-73
2022/05/08 08:30:01;;;;;;;9.88;6.70;;;;;;;16.07;80.86;96460.81;5013458;28;24420;-73
2022/05/08 08:32:28;;;;;;;6.88;6.25;;;;;;;15.98;83.59;96469.31;5013377;28;24486;-73
2022/05/08 08:34:54;;;;;;;7.10;6.05;;;;;;;16.06;79.90;96464.38;5013229;28;24420;-73
2022/05/08 08:37:21;;;;;;;8.48;6.45;;;;;;;15.94;80.09;96466.13;5012888;28;24440;-73
2022/05/08 08:39:48;;;;;;;9.80;6.70;;;;;;;16.06;83.25;96466.19;5012964;28;24431;-73
2022/05/08 08:42:22;;;;;;;8.60;6.88;;;;;;;16.03;80.40;96461.16;5012662;28;24535;-73
2022/05/08 08:47:44;;;;;;;8.18;6.95;;;;;;;16.17;82.69;96461.81;5012401;28;25009;-73
2022/05/08 08:50:11;;;;;;;9.40;7.28;;;;;;;16.32;86.17;96459.84;5012781;28;24427;-73
2022/05/08 08:52:38;;;;;;;7.75;6.95;;;;;;;16.20;84.47;96461.59;5012370;28;24432;-73
2022/05/08 08:55:07;;;;;;;10.95;7.40;;;;;;;16.24;77.98;96472.66;5012518;28;24420;-73
2022/05/08 08:57:33;;;;;;;7.40;6.65;;;;;;;16.29;79.35;96472.31;5012735;28;24531;-73
2022/05/08 09:00:01;;;;;;;7.45;6.47;;;;;;;16.06;79.81;96464.38;5012715;28;24431;-73
2022/05/08 09:02:28;;;;;;;7.05;5.93;;;;;;;16.06;76.82;96467.00;5012413;28;24432;-73
2022/05/08 09:04:54;;;;;;;7.50;6.70;;;;;;;16.45;80.64;96468.41;5012535;28;24430;-73
2022/05/08 09:07:40;;;;;;;8.10;6.50;;;;;;;16.67;82.43;96470.25;5012151;28;25022;-73
2022/05/08 09:10:12;;;;;;;9.07;6.70;;;;;;;16.86;79.65;96466.25;5012767;28;25036;-73
2022/05/08 09:12:40;;;;;;;9.10;6.82;;;;;;;16.89;76.82;96468.63;5012017;28;24428;-73
2022/05/08 09:15:22;;;;;;;8.50;6.47;;;;;;;17.00;77.88;96465.19;5012104;28;24981;-73
2022/05/08 09:17:50;;;;;;;9.68;6.38;;;;;;;16.75;70.76;96466.25;5012071;28;24444;-73
2022/05/08 09:20:29;;;;;;;10.82;6.07;;;;;;;17.00;69.07;96467.81;5012199;28;24968;-73
2022/05/08 09:23:14;;;;;;;7.68;6.85;;;;;;;17.27;70.43;96462.22;5011707;28;24455;-73
2022/05/08 09:25:49;;;;;;;8.93;6.25;;;;;;;17.47;79.57;96468.50;5012061;28;24539;-73
2022/05/08 09:28:17;;;;;;;10.05;5.72;;;;;;;17.52;70.53;96455.88;5011891;28;24423;-73
2022/05/08 09:31:04;;;;;;;9.40;5.90;;;;;;;17.61;72.04;96468.22;5012685;28;24424;-74
2022/05/08 09:33:33;;;;;;;10.20;5.60;;;;;;;17.84;73.15;96463.81;5012552;28;24520;-73
2022/05/08 09:36:01;;;;;;;7.97;5.20;;;;;;;17.99;69.10;96459.94;5011750;28;24974;-73
2022/05/08 09:38:44;;;;;;;6.68;5.25;;;;;;;17.85;60.95;96462.84;5011882;28;24946;-73
2022/05/08 09:41:11;;;;;;;7.72;5.32;;;;;;;18.00;64.99;96461.59;5011859;28;24498;-73
2022/05/08 09:43:40;;;;;;;6.87;5.20;;;;;;;18.34;68.18;96456.19;5011630;28;24431;-73
2022/05/08 09:46:09;;;;;;;8.20;5.72;;;;;;;18.45;62.54;96455.31;5011768;28;24428;-73
2022/05/08 09:48:35;;;;;;;7.22;6.20;;;;;;;18.36;64.51;96454.28;5011681;28;24483;-73
2022/05/08 09:51:04;;;;;;;8.05;5.78;;;;;;;18.19;64.21;96457.47;5011430;28;24958;-73
2022/05/08 09:53:32;;;;;;;7.60;5.53;;;;;;;18.19;60.86;96457.47;5011329;28;24508;-73
2022/05/08 09:55:59;;;;;;;10.00;5.43;;;;;;;18.22;58.86;96446.72;5011642;28;24516;-73
2022/05/08 09:58:26;;;;;;;5.93;5.10;;;;;;;18.34;61.09;96453.56;5011849;28;24420;-73
2022/05/08 10:00:54;;;;;;;7.28;4.60;;;;;;;18.50;67.18;96447.88;5010790;28;24416;-73
2022/05/08 10:03:22;;;;;;;7.93;5.40;;;;;;;18.37;57.12;96456.75;5011226;28;24474;-73
2022/05/08 10:05:49;;;;;;;8.50;5.55;;;;;;;18.20;56.43;96461.75;5011721;28;24507;-73
2022/05/08 10:08:16;;;;;;;6.70;5.45;;;;;;;18.17;60.26;96451.50;5011516;28;24818;-73
2022/05/08 10:16:48;;;;;;;8.18;5.47;;;;;;;18.25;61.29;96443.84;5011025;28;25024;-73
2022/05/08 10:19:54;;;;;;;6.38;5.10;;;;;;;18.37;64.15;96450.69;5016505;28;24431;-72
2022/05/08 10:22:22;;;;;;;8.95;5.22;;;;;;;18.23;56.49;96451.00;5015200;28;24445;-73
2022/05/08 10:24:54;;;;;;;8.15;5.57;;;;;;;18.33;57.57;96450.13;5027942;28;24428;-73
2022/05/08 10:27:24;;;;;;;7.88;5.30;;;;;;;18.36;56.04;96443.78;5020700;28;24996;-73
2022/05/08 10:30:30;;;;;;;9.18;5.35;;;;;;;18.65;58.89;96443.97;5020562;28;24421;-73
2022/05/08 10:32:57;;;;;;;6.18;5.53;;;;;;;18.82;61.11;96437.31;5017397;28;24988;-73
2022/05/08 10:35:26;;;;;;;7.88;5.28;;;;;;;18.92;59.18;96438.19;5010796;28;24980;-73
2022/05/08 10:38:21;;;;;;;6.82;4.43;;;;;;;19.08;62.18;96438.53;5011092;28;24547;-73
2022/05/08 10:40:47;;;;;;;7.78;4.25;;;;;;;18.86;52.74;96431.66;5010982;28;24412;-73
2022/05/08 10:43:30;;;;;;;6.55;4.30;;;;;;;18.81;53.62;96449.59;5010564;28;24466;-72
2022/05/08 10:45:57;;;;;;;6.05;4.57;;;;;;;18.84;53.79;96443.28;5010939;28;24436;-73
2022/05/08 10:48:28;;;;;;;9.27;4.97;;;;;;;18.80;56.86;96440.09;5010895;28;24412;-73
2022/05/08 10:50:56;;;;;;;7.28;5.22;;;;;;;18.89;58.84;96450.75;5010701;28;24964;-72
2022/05/08 10:53:26;;;;;;;9.82;5.32;;;;;;;18.60;58.19;96443.53;5010551;28;24479;-73
2022/05/08 10:55:53;;;;;;;7.03;4.43;;;;;;;18.68;60.18;96441.06;5010800;28;24424;-72
2022/05/08 10:58:20;;;;;;;7.82;5.13;;;;;;;18.60;56.00;96448.75;5010763;28;24806;-72
2022/05/08 11:00:46;;;;;;;6.85;5.97;;;;;;;18.60;57.40;96446.97;5010778;28;24424;-73
2022/05/08 11:03:21;;;;;;;6.18;4.82;;;;;;;19.02;64.11;96448.72;5010653;28;24775;-73
2022/05/08 11:05:48;;;;;;;5.10;4.60;;;;;;;18.81;56.42;96439.13;5010535;28;24516;-73
2022/05/08 11:08:22;;;;;;;6.53;4.63;;;;;;;18.90;59.11;96442.75;5010442;28;24509;-73
2022/05/08 11:10:58;;;;;;;7.70;4.72;;;;;;;18.96;59.10;96444.03;5011361;28;24423;-73
2022/05/08 11:13:26;;;;;;;8.85;5.28;;;;;;;19.18;59.34;96443.00;5014511;28;24499;-73
2022/05/08 11:15:53;;;;;;;5.70;4.80;;;;;;;19.17;60.27;96441.31;5014514;28;24431;-73
2022/05/08 11:18:20;;;;;;;6.85;4.32;;;;;;;19.44;58.27;96433.69;5014507;28;24467;-73
2022/05/08 11:20:49;;;;;;;6.72;4.68;;;;;;;19.08;55.48;96451.66;5014172;28;24474;-73
2022/05/08 11:23:17;;;;;;;16.40;5.05;;;;;;;19.06;53.22;96442.28;5015558;28;24546;-73
2022/05/08 11:25:46;;;;;;;11.50;6.15;;;;;;;19.06;54.19;96444.91;5014931;28;24419;-73
2022/05/08 11:28:15;;;;;;;10.43;5.25;;;;;;;18.86;57.20;96451.84;5014384;28;24417;-73
2022/05/08 11:30:46;;;;;;;6.93;5.28;;;;;;;19.01;57.08;96453.16;5014742;28;24451;-73
2022/05/08 11:36:05;;;;;;;5.45;4.65;;;;;;;19.27;57.59;96444.81;5014233;28;24403;-73
2022/05/08 11:38:33;;;;;;;7.30;4.60;;;;;;;19.27;58.83;96437.75;5013951;28;24503;-73
2022/05/08 11:41:01;;;;;;;8.32;5.40;;;;;;;18.99;56.27;96457.72;5014086;28;24482;-73
2022/05/08 11:43:42;;;;;;;6.68;5.25;;;;;;;18.97;62.55;96451.75;5013802;28;24786;-73
2022/05/08 11:46:13;;;;;;;6.53;5.32;;;;;;;19.10;58.31;96447.13;5013842;28;24954;-73
2022/05/08 11:48:41;;;;;;;7.70;5.13;;;;;;;19.20;62.23;96441.06;5014117;28;24503;-73
2022/05/08 11:51:09;;;;;;;6.75;5.35;;;;;;;19.22;58.74;96437.34;5013837;28;24826;-73
2022/05/08 11:53:43;;;;;;;6.43;5.30;;;;;;;19.64;67.06;96433.75;5013622;28;24790;-73
2022/05/08 11:56:27;;;;;;;6.82;5.15;;;;;;;19.52;62.25;96446.13;5013630;28;24428;-73
2022/05/08 11:58:56;;;;;;;9.93;4.90;;;;;;;19.38;55.50;96444.72;5013910;28;24424;-73
2022/05/08 12:01:28;;;;;;;9.00;4.77;;;;;;;19.36;56.11;96430.06;5013633;28;25005;-73
2022/05/08 12:03:56;;;;;;;5.13;4.63;;;;;;;19.37;58.94;96429.94;5013282;28;24966;-73